Time;durP1;ratioP1;P1;durP2;ratioP2;P2;SDS_P1;SDS_P2;PMS_P1;PMS_P2;Temp;Humidity;BMP_temperature;BMP_pressure;BME280_temperature;BME280_humidity;BME280_pressure;Samples;Min_cycle;Max_cycle;Signal;HPM_P1;HPM_P2
2021/11/01 00:01:20;;;;;;;53.33;35.08;;;;;;;5.36;84.42;100456.36;1734581;81;21081;-67
2021/11/01 00:03:46;;;;;;;62.67;37.85;;;;;;;5.37;84.49;100458.52;1757020;81;21037;-74
2021/11/01 00:06:13;;;;;;;72.22;39.78;;;;;;;5.38;84.56;100453.47;1719105;81;21023;-70
2021/11/01 00:08:40;;;;;;;58.83;34.63;;;;;;;5.34;84.50;100457.56;1742131;81;20977;-68
2021/11/01 00:11:07;;;;;;;53.63;33.42;;;;;;;5.30;84.55;100450.47;1740764;81;21014;-70
2021/11/01 00:13:35;;;;;;;60.03;38.28;;;;;;;5.18;84.20;100449.39;1756891;81;21019;-70
2021/11/01 00:16:01;;;;;;;50.78;35.15;;;;;;;5.12;84.41;100449.66;1756671;81;20994;-68
2021/11/01 00:18:28;;;;;;;56.10;37.73;;;;;;;5.12;84.72;100448.32;1756688;81;22127;-69
2021/11/01 00:20:54;;;;;;;50.35;32.88;;;;;;;5.14;84.87;100444.11;1742733;78;21542;-68
2021/11/01 00:23:21;;;;;;;59.55;36.38;;;;;;;5.16;84.95;100447.41;1759067;80;21691;-71
2021/11/01 00:25:49;;;;;;;52.58;35.85;;;;;;;5.06;84.68;100442.94;1735261;81;21031;-70
2021/11/01 00:28:15;;;;;;;54.03;35.10;;;;;;;4.98;84.76;100444.44;1722442;82;21010;-67
2021/11/01 00:30:42;;;;;;;48.38;35.48;;;;;;;4.93;84.86;100438.86;1735793;82;21186;-69
2021/11/01 00:33:09;;;;;;;54.48;35.85;;;;;;;4.89;85.00;100440.27;1766430;81;20934;-71
2021/11/01 00:35:35;;;;;;;59.38;36.33;;;;;;;4.88;85.07;100432.78;1736374;81;21504;-71
2021/11/01 00:38:02;;;;;;;58.02;37.80;;;;;;;4.89;85.00;100437.10;1760814;80;21491;-72
2021/11/01 00:40:29;;;;;;;66.47;40.35;;;;;;;4.93;84.98;100433.53;1759403;81;21495;-72
2021/11/01 00:42:55;;;;;;;69.40;39.23;;;;;;;4.98;84.72;100435.10;1756806;81;21039;-73
2021/11/01 00:45:21;;;;;;;54.90;39.00;;;;;;;4.95;84.27;100428.81;1735735;81;20979;-71
2021/11/01 00:47:49;;;;;;;58.85;40.48;;;;;;;4.89;83.89;100430.95;1759925;81;20959;-71
2021/11/01 00:50:15;;;;;;;66.62;43.02;;;;;;;4.84;84.04;100430.20;1759262;81;21066;-70
2021/11/01 00:52:44;;;;;;;59.80;38.60;;;;;;;4.84;84.04;100425.66;1754865;81;20988;-73
2021/11/01 00:55:18;;;;;;;57.33;38.28;;;;;;;4.88;83.97;100421.30;1753552;81;21210;-70
2021/11/01 00:57:38;;;;;;;44.18;32.83;;;;;;;4.94;84.03;100419.98;1736345;81;20991;-70
2021/11/01 01:00:07;;;;;;;44.25;30.62;;;;;;;4.91;83.70;100421.72;1737368;82;21024;-71
2021/11/01 01:02:33;;;;;;;52.95;36.45;;;;;;;4.82;83.70;100415.72;1713357;82;20978;-69
2021/11/01 01:05:02;;;;;;;44.60;32.08;;;;;;;4.75;83.94;100414.02;1734117;82;21071;-70
2021/11/01 01:07:28;;;;;;;57.53;36.58;;;;;;;4.80;84.19;100412.92;1727538;82;21066;-71
2021/11/01 01:09:55;;;;;;;50.20;34.65;;;;;;;4.77;84.28;100412.81;1752632;80;20923;-71
2021/11/01 01:12:21;;;;;;;62.65;39.33;;;;;;;4.75;84.29;100412.68;1767806;80;21021;-68
2021/11/01 01:14:56;;;;;;;51.48;34.75;;;;;;;4.70;84.26;100413.27;1759247;81;20996;-69
2021/11/01 01:17:16;;;;;;;60.23;38.13;;;;;;;4.65;84.39;100412.23;1767586;80;21053;-68
2021/11/01 01:19:51;;;;;;;58.63;38.90;;;;;;;4.63;84.55;100405.75;1749030;81;20997;-69
2021/11/01 01:22:25;;;;;;;54.05;37.28;;;;;;;4.64;84.69;100405.24;1735898;80;21023;-77
2021/11/01 01:24:48;;;;;;;55.25;35.35;;;;;;;4.68;84.73;100402.50;1789501;80;20924;-70
2021/11/01 01:27:14;;;;;;;53.35;36.88;;;;;;;4.67;84.75;100407.51;1741345;81;20996;-71
2021/11/01 01:29:42;;;;;;;55.65;38.08;;;;;;;4.67;84.74;100394.19;1732021;82;21045;-70
2021/11/01 01:32:08;;;;;;;45.88;33.05;;;;;;;4.69;84.92;100389.00;1738415;80;22029;-70
2021/11/01 01:34:34;;;;;;;54.05;36.23;;;;;;;4.65;84.75;100390.38;1709832;82;20931;-71
2021/11/01 01:37:01;;;;;;;46.33;34.35;;;;;;;4.55;84.84;100386.42;1740332;81;20952;-72
2021/11/01 01:39:27;;;;;;;50.40;37.65;;;;;;;4.50;85.16;100386.18;1721354;81;21539;-74
2021/11/01 01:41:54;;;;;;;47.93;35.13;;;;;;;4.43;85.28;100383.45;1761194;80;21026;-72
2021/11/01 01:44:20;;;;;;;56.45;38.38;;;;;;;4.42;85.61;100383.64;1697218;81;21215;-74
2021/11/01 01:46:47;;;;;;;54.27;37.55;;;;;;;4.41;85.99;100386.02;1723416;81;20940;-76
2021/11/01 01:49:13;;;;;;;54.20;36.65;;;;;;;4.41;86.18;100378.02;1740099;82;20998;-77
2021/11/01 01:51:41;;;;;;;55.60;32.40;;;;;;;4.38;86.49;100378.71;1739561;82;20943;-75
2021/11/01 01:54:07;;;;;;;48.58;34.75;;;;;;;4.44;86.63;100376.30;1723183;81;21488;-73
2021/11/01 01:56:34;;;;;;;48.68;33.55;;;;;;;4.39;86.46;100375.55;1731772;82;21182;-71
2021/11/01 01:59:06;;;;;;;44.95;32.73;;;;;;;4.33;86.49;100376.30;1740194;81;20955;-71
2021/11/01 02:01:36;;;;;;;53.85;35.17;;;;;;;4.26;86.62;100378.94;1722173;82;21030;-69
2021/11/01 02:04:02;;;;;;;53.48;34.73;;;;;;;4.22;86.82;100376.31;1739437;82;21464;-70
2021/11/01 02:06:44;;;;;;;49.53;34.30;;;;;;;4.16;88.05;100370.44;1742516;81;21028;-70
2021/11/01 02:09:21;;;;;;;57.88;41.90;;;;;;;4.08;88.42;100379.05;1733641;81;21151;-70
2021/11/01 02:11:53;;;;;;;44.55;32.65;;;;;;;4.04;88.50;100371.95;1712983;82;20978;-67
2021/11/01 02:14:21;;;;;;;44.98;30.88;;;;;;;4.06;88.72;100373.94;1709774;84;21051;-71
2021/11/01 02:16:49;;;;;;;48.50;32.67;;;;;;;4.03;88.86;100374.30;1734702;81;21712;-66
2021/11/01 02:19:19;;;;;;;49.70;34.65;;;;;;;3.99;89.01;100371.70;1733308;82;21092;-80
2021/11/01 02:21:51;;;;;;;46.50;33.78;;;;;;;3.90;89.21;100367.52;1740051;81;21104;-66
2021/11/01 02:24:23;;;;;;;47.33;31.93;;;;;;;3.89;89.30;100365.37;1710694;82;22213;-66
2021/11/01 02:26:50;;;;;;;48.38;34.63;;;;;;;3.82;89.61;100367.16;1740256;81;21536;-69
2021/11/01 02:29:17;;;;;;;44.75;34.53;;;;;;;3.75;89.60;100364.92;1720918;82;21073;-67
2021/11/01 02:31:43;;;;;;;40.12;29.37;;;;;;;3.72;89.73;100362.64;1739469;82;21019;-70
2021/11/01 02:34:10;;;;;;;41.65;31.93;;;;;;;3.65;90.23;100361.73;1739552;82;21177;-71
2021/11/01 02:36:36;;;;;;;45.70;31.68;;;;;;;3.65;90.23;100361.73;1710857;81;21563;-67
2021/11/01 02:39:02;;;;;;;47.70;31.80;;;;;;;3.59;90.60;100360.36;1740196;82;20995;-68
2021/11/01 02:41:34;;;;;;;46.58;33.75;;;;;;;3.56;90.63;100356.22;1739467;82;20999;-67
2021/11/01 02:44:04;;;;;;;44.45;30.35;;;;;;;3.56;90.63;100356.22;1739739;82;21568;-68
2021/11/01 02:46:31;;;;;;;41.02;30.75;;;;;;;3.56;91.15;100360.72;1709067;81;21063;-67
2021/11/01 02:48:57;;;;;;;48.33;32.55;;;;;;;3.55;91.39;100360.42;1740105;82;20956;-73
2021/11/01 02:51:25;;;;;;;39.03;29.48;;;;;;;3.51;91.46;100355.45;1738808;82;20943;-67
2021/11/01 02:53:52;;;;;;;50.28;32.85;;;;;;;3.53;91.46;100355.78;1719249;82;21508;-72
2021/11/01 02:56:18;;;;;;;45.65;29.52;;;;;;;3.56;91.48;100350.91;1710093;81;21043;-69
2021/11/01 02:58:45;;;;;;;50.90;34.58;;;;;;;3.58;91.51;100347.56;1740388;81;21127;-68
2021/11/01 03:01:15;;;;;;;39.05;28.77;;;;;;;3.59;91.37;100353.70;1739414;82;20975;-70
2021/11/01 03:03:42;;;;;;;39.63;27.75;;;;;;;3.61;91.23;100347.17;1719890;81;21003;-68
2021/11/01 03:06:10;;;;;;;41.28;32.17;;;;;;;3.54;90.99;100347.62;1752732;81;21030;-66
2021/11/01 03:08:36;;;;;;;45.80;32.13;;;;;;;3.48;90.97;100341.72;1761198;81;21070;-68
2021/11/01 03:11:04;;;;;;;38.02;28.12;;;;;;;3.54;91.18;100348.95;1744206;81;21321;-68
2021/11/01 03:13:32;;;;;;;48.05;31.37;;;;;;;3.59;91.15;100349.72;1729610;81;21034;-67
2021/11/01 03:15:59;;;;;;;44.13;30.55;;;;;;;3.59;90.85;100345.73;1709586;82;21520;-67
2021/11/01 03:18:32;;;;;;;42.75;27.95;;;;;;;3.54;90.69;100348.95;1733046;81;20992;-68
2021/11/01 03:20:59;;;;;;;41.02;30.80;;;;;;;3.49;90.69;100346.03;1718080;82;21216;-68
2021/11/01 03:23:30;;;;;;;44.50;29.72;;;;;;;3.44;90.77;100339.95;1722362;82;21185;-67
2021/11/01 03:26:04;;;;;;;35.43;26.70;;;;;;;3.43;90.83;100338.80;1728528;81;21491;-67
2021/11/01 03:28:31;;;;;;;38.40;29.75;;;;;;;3.44;90.85;100334.64;1756782;81;20983;-68
2021/11/01 03:30:58;;;;;;;36.40;29.48;;;;;;;3.46;90.79;100338.41;1719827;82;21043;-67
2021/11/01 03:33:27;;;;;;;39.85;28.67;;;;;;;3.50;90.81;100334.39;1735322;80;20940;-69
2021/11/01 03:35:54;;;;;;;40.67;29.27;;;;;;;3.56;90.81;100328.80;1773581;80;21448;-68
2021/11/01 03:38:21;;;;;;;42.73;32.58;;;;;;;3.55;90.36;100333.30;1742058;80;21019;-68
2021/11/01 03:40:49;;;;;;;54.63;36.40;;;;;;;3.51;90.17;100328.87;1724373;82;21492;-75
2021/11/01 03:43:27;;;;;;;53.28;33.83;;;;;;;3.49;89.98;100329.58;1709097;82;20948;-68
2021/11/01 03:45:45;;;;;;;56.25;38.55;;;;;;;3.43;89.88;100322.84;1718512;83;21090;-67
2021/11/01 03:48:16;;;;;;;52.48;35.13;;;;;;;3.35;89.85;100326.45;1723011;83;21088;-68
2021/11/01 03:50:46;;;;;;;48.17;34.75;;;;;;;3.29;90.13;100323.21;1708198;83;20971;-68
2021/11/01 03:53:09;;;;;;;53.58;36.98;;;;;;;3.27;90.52;100321.73;1756409;81;21009;-67
2021/11/01 03:55:36;;;;;;;58.78;37.25;;;;;;;3.26;90.44;100322.77;1723047;83;21037;-66
2021/11/01 03:58:02;;;;;;;48.38;32.48;;;;;;;3.20;90.39;100317.69;1738865;81;20998;-67
2021/11/01 04:00:33;;;;;;;47.45;32.90;;;;;;;3.23;90.63;100312.49;1715791;82;21206;-67
2021/11/01 04:02:59;;;;;;;54.18;35.10;;;;;;;3.22;90.66;100312.16;1742831;82;20960;-66
2021/11/01 04:05:25;;;;;;;44.35;32.17;;;;;;;3.23;90.64;100311.98;1718107;83;20963;-69
2021/11/01 04:07:53;;;;;;;53.55;35.85;;;;;;;3.24;90.50;100306.17;1711604;82;21062;-69
2021/11/01 04:10:21;;;;;;;37.40;30.27;;;;;;;3.24;90.40;100306.17;1733138;82;20999;-67
2021/11/01 04:12:47;;;;;;;42.58;29.90;;;;;;;3.27;90.39;100302.63;1732442;82;21218;-70
2021/11/01 04:15:19;;;;;;;45.25;32.38;;;;;;;3.25;90.21;100305.16;1707267;82;20971;-68
2021/11/01 04:18:03;;;;;;;49.40;32.10;;;;;;;3.27;90.22;100301.80;1733336;82;32627;-73
2021/11/01 04:20:49;;;;;;;45.12;33.02;;;;;;;3.21;90.00;100297.25;1741902;81;20946;-67
2021/11/01 04:23:08;;;;;;;38.88;28.95;;;;;;;3.20;90.15;100291.11;1733921;81;20998;-68
2021/11/01 04:25:33;;;;;;;44.40;31.70;;;;;;;3.20;90.09;100296.92;1740001;82;21293;-68
2021/11/01 04:28:01;;;;;;;46.90;30.25;;;;;;;3.14;90.06;100293.68;1710731;81;20957;-76
2021/11/01 04:30:36;;;;;;;44.13;30.70;;;;;;;3.15;90.22;100291.34;1712747;82;20932;-69
2021/11/01 04:33:02;;;;;;;48.23;32.83;;;;;;;3.11;90.15;100287.42;1690760;84;21099;-68
2021/11/01 04:35:28;;;;;;;41.13;31.12;;;;;;;3.12;90.24;100294.39;1690866;84;20988;-70
2021/11/01 04:38:28;;;;;;;51.85;36.35;;;;;;;3.13;90.24;100290.70;1718735;81;21161;-67
2021/11/01 04:40:46;;;;;;;47.78;35.70;;;;;;;3.08;90.20;100287.27;1720424;81;20976;-67
2021/11/01 04:53:33;;;;;;;49.53;33.80;;;;;;;3.13;90.18;100285.38;1722442;82;21018;-68
2021/11/01 04:55:59;;;;;;;53.35;38.88;;;;;;;3.06;90.17;100281.34;1725414;81;21012;-70
2021/11/01 04:58:25;;;;;;;51.98;38.30;;;;;;;3.02;90.15;100285.38;1708952;82;21022;-71
2021/11/01 05:00:52;;;;;;;57.08;37.23;;;;;;;2.97;90.19;100282.46;1700760;83;21078;-66
2021/11/01 05:05:49;;;;;;;51.83;36.08;;;;;;;3.03;90.32;100285.18;1710477;82;20955;-67
2021/11/01 05:08:17;;;;;;;44.70;32.65;;;;;;;3.03;90.16;100287.84;1739883;82;21021;-68
2021/11/01 05:10:48;;;;;;;44.83;33.18;;;;;;;2.96;90.08;100279.48;1732949;81;20938;-67
2021/11/01 05:13:16;;;;;;;45.55;33.78;;;;;;;2.91;90.17;100284.02;1739111;82;21034;-68
2021/11/01 05:20:47;;;;;;;52.80;34.95;;;;;;;2.77;90.74;100288.85;1771468;80;21019;-69
2021/11/01 05:23:27;;;;;;;49.20;33.00;;;;;;;2.76;90.96;100293.84;1709662;82;21022;-69
2021/11/01 05:25:50;;;;;;;49.30;34.23;;;;;;;2.80;91.14;100292.95;1743044;81;20988;-70
2021/11/01 05:31:05;;;;;;;48.00;35.05;;;;;;;2.70;91.29;100294.56;1720644;81;21022;-70
2021/11/01 05:36:06;;;;;;;45.75;33.05;;;;;;;2.77;91.81;100297.32;1742479;81;21110;-70
2021/11/01 05:38:34;;;;;;;37.53;29.32;;;;;;;2.81;91.79;100288.80;1729416;81;21056;-69
2021/11/01 05:41:02;;;;;;;48.00;32.70;;;;;;;2.87;91.89;100283.25;1717286;81;21123;-69
2021/11/01 05:43:28;;;;;;;52.43;38.33;;;;;;;2.91;91.80;100286.67;1715728;82;21584;-74
2021/11/01 05:45:54;;;;;;;65.15;49.80;;;;;;;2.91;91.69;100285.35;1709314;83;20939;-69
2021/11/01 05:48:21;;;;;;;70.40;50.10;;;;;;;2.93;91.78;100287.30;1699964;81;21552;-73
2021/11/01 05:50:47;;;;;;;76.28;52.13;;;;;;;2.97;91.98;100287.24;1743964;80;21501;-71
2021/11/01 05:53:14;;;;;;;73.92;52.78;;;;;;;3.05;92.06;100291.14;1740253;82;21067;-73
2021/11/01 05:58:32;;;;;;;62.43;45.73;;;;;;;3.26;92.00;100294.33;1740415;82;21038;-70
2021/11/01 06:03:44;;;;;;;68.92;50.12;;;;;;;3.31;91.20;100300.44;1720528;82;21129;-73
2021/11/01 06:09:16;;;;;;;67.45;50.33;;;;;;;3.34;91.07;100305.37;1742130;81;20987;-72
2021/11/01 06:14:11;;;;;;;67.22;51.48;;;;;;;3.43;91.11;100303.73;1741641;81;21701;-71
2021/11/01 06:16:38;;;;;;;67.97;50.85;;;;;;;3.47;90.73;100301.51;1725329;81;21464;-70
2021/11/01 06:19:05;;;;;;;55.23;44.63;;;;;;;3.46;90.53;100304.67;1721242;82;21202;-72
2021/11/01 06:21:31;;;;;;;71.75;46.10;;;;;;;3.48;90.55;100298.67;1767526;80;20955;-72
2021/11/01 06:24:01;;;;;;;59.53;40.33;;;;;;;3.48;90.36;100307.98;1721015;82;21074;-69
2021/11/01 06:26:28;;;;;;;62.13;44.40;;;;;;;3.49;90.39;100305.64;1723028;81;21023;-68
2021/11/01 06:29:05;;;;;;;50.17;38.23;;;;;;;3.53;90.54;100299.44;1727711;82;21606;-66
2021/11/01 06:31:28;;;;;;;61.85;42.17;;;;;;;3.63;90.46;100299.95;1719277;82;21275;-67
2021/11/01 06:39:51;;;;;;;61.95;42.85;;;;;;;3.77;90.07;100303.55;1710489;82;21008;-69
2021/11/01 06:44:48;;;;;;;65.05;43.68;;;;;;;3.86;90.13;100297.08;1710371;84;21030;-71
2021/11/01 06:50:08;;;;;;;59.50;38.63;;;;;;;4.03;90.06;100294.98;1710079;84;20971;-68
2021/11/01 07:14:15;;;;;;;76.17;49.42;;;;;;;4.83;89.08;100285.97;1692519;83;21012;-67
2021/11/01 07:25:18;;;;;;;62.62;40.85;;;;;;;5.20;89.01;100277.49;1720918;82;21095;-67
2021/11/01 08:29:59;;;;;;;50.78;37.17;;;;;;;7.52;80.80;100240.83;1758521;81;20966;-69
2021/11/01 08:35:31;;;;;;;69.80;44.98;;;;;;;7.76;80.51;100240.55;1752607;80;21569;-71
2021/11/01 08:40:44;;;;;;;62.98;44.05;;;;;;;8.04;79.56;100236.91;1732222;82;21011;-68
2021/11/01 08:42:51;;;;;;;54.85;41.42;;;;;;;8.15;78.80;100240.73;1736011;81;20991;-70
2021/11/01 09:01:28;;;;;;;58.87;41.73;;;;;;;8.87;76.40;100221.73;1717213;82;21071;-70
2021/11/01 09:04:00;;;;;;;58.17;40.33;;;;;;;8.98;76.34;100212.38;1752769;81;20943;-69
2021/11/01 09:22:29;;;;;;;47.85;34.83;;;;;;;9.70;73.55;100207.81;1733607;81;20982;-77
2021/11/01 09:24:55;;;;;;;42.50;33.53;;;;;;;9.78;72.86;100203.47;1698779;83;21087;-68
2021/11/01 09:27:22;;;;;;;48.15;35.00;;;;;;;9.87;72.89;100199.91;1672634;84;21111;-70
2021/11/01 09:43:07;;;;;;;45.20;35.63;;;;;;;10.07;72.11;100176.98;1718782;82;21080;-70
2021/11/01 09:45:37;;;;;;;39.88;34.00;;;;;;;10.10;72.12;100181.09;1709848;82;20935;-68
2021/11/01 09:48:05;;;;;;;39.00;32.83;;;;;;;10.14;72.15;100172.84;1703831;84;21066;-69
2021/11/01 09:50:34;;;;;;;40.45;31.87;;;;;;;10.17;72.08;100164.33;1703749;83;21168;-69
2021/11/01 09:53:06;;;;;;;39.45;30.95;;;;;;;10.22;72.15;100161.75;1703425;83;21027;-69
2021/11/01 10:01:07;;;;;;;39.50;33.80;;;;;;;10.47;71.82;100140.80;1738026;81;21010;-70
2021/11/01 10:03:45;;;;;;;43.80;32.38;;;;;;;10.52;71.47;100148.66;1737484;82;21315;-69
2021/11/01 10:06:22;;;;;;;42.75;32.90;;;;;;;10.59;71.11;100145.33;1771523;80;21075;-69
2021/11/01 10:09:01;;;;;;;44.27;29.93;;;;;;;10.61;70.97;100141.86;1740851;80;21250;-71
2021/11/01 10:11:31;;;;;;;43.80;34.17;;;;;;;10.64;70.86;100134.15;1769304;80;21029;-69
2021/11/01 10:14:01;;;;;;;41.13;31.27;;;;;;;10.74;70.88;100134.88;1767500;81;21550;-69
2021/11/01 10:19:36;;;;;;;39.70;30.95;;;;;;;10.92;70.19;100144.09;1718227;82;21089;-69
2021/11/01 10:22:24;;;;;;;39.63;31.33;;;;;;;10.98;70.23;100136.41;1687352;84;21003;-72
2021/11/01 10:24:54;;;;;;;37.42;29.32;;;;;;;11.10;70.10;100129.08;1699333;82;21005;-69
2021/11/01 10:27:38;;;;;;;34.55;28.92;;;;;;;11.16;69.63;100124.08;1705765;83;21055;-70
2021/11/01 10:30:09;;;;;;;38.10;27.75;;;;;;;11.17;69.24;100118.16;1697595;84;22065;-73
2021/11/01 10:32:46;;;;;;;34.78;28.02;;;;;;;11.19;69.29;100117.38;1703012;82;21029;-68
2021/11/01 10:35:25;;;;;;;35.38;29.23;;;;;;;11.21;69.21;100116.09;1710422;82;21436;-69
2021/11/01 10:38:20;;;;;;;34.30;28.85;;;;;;;11.20;69.09;100117.14;1735625;81;21014;-70
2021/11/01 10:58:04;;;;;;;33.92;25.62;;;;;;;11.86;68.21;100106.08;1713460;82;21215;-78
2021/11/01 11:13:12;;;;;;;33.35;27.00;;;;;;;12.06;66.83;100091.53;1710078;82;21054;-75
2021/11/01 11:15:37;;;;;;;34.08;28.62;;;;;;;12.10;66.39;100087.80;1710182;82;21318;-72
2021/11/01 11:18:10;;;;;;;29.27;25.50;;;;;;;12.08;66.40;100081.86;1711540;82;21046;-73
2021/11/01 11:20:49;;;;;;;32.63;25.30;;;;;;;12.16;66.30;100076.02;1709131;82;21544;-74
2021/11/01 11:26:22;;;;;;;32.58;26.07;;;;;;;12.33;65.89;100073.24;1736439;82;21059;-78
2021/11/01 11:29:26;;;;;;;32.40;24.57;;;;;;;12.41;65.58;100078.22;1734228;81;21453;-74
2021/11/01 11:31:36;;;;;;;34.15;27.87;;;;;;;12.47;65.22;100062.38;1727022;82;21050;-75
2021/11/01 11:39:28;;;;;;;31.75;26.55;;;;;;;12.43;65.07;100058.53;1756928;81;20980;-75
2021/11/01 11:48:15;;;;;;;31.20;24.63;;;;;;;12.64;64.23;100029.36;1714579;82;21075;-71
2021/11/01 11:50:34;;;;;;;26.35;21.80;;;;;;;12.64;64.19;100032.05;1711502;83;21187;-76
2021/11/01 11:53:16;;;;;;;27.75;23.15;;;;;;;12.67;64.24;100029.66;1726471;82;21022;-71
2021/11/01 11:55:46;;;;;;;29.63;24.67;;;;;;;12.77;63.74;100033.52;1719144;82;21601;-73
2021/11/01 11:58:14;;;;;;;29.72;24.47;;;;;;;12.81;63.43;100028.70;1743457;81;21630;-72
2021/11/01 12:00:42;;;;;;;32.93;25.30;;;;;;;12.84;63.63;100028.73;1728714;82;21038;-77
2021/11/01 12:03:15;;;;;;;33.53;27.40;;;;;;;12.93;63.57;100023.97;1728725;82;21036;-74
2021/11/01 12:05:50;;;;;;;34.23;26.15;;;;;;;13.02;63.04;100031.05;1720887;82;21001;-74
2021/11/01 12:08:29;;;;;;;27.50;24.37;;;;;;;13.06;63.09;100020.01;1688724;83;21045;-71
2021/11/01 12:18:29;;;;;;;34.60;26.35;;;;;;;13.10;62.27;100005.73;1749859;81;21477;-71
2021/11/01 12:20:59;;;;;;;39.23;28.32;;;;;;;13.10;62.09;100010.31;1743648;79;23043;-74
2021/11/01 12:23:42;;;;;;;38.65;29.52;;;;;;;13.06;62.36;100013.26;1779232;79;21579;-74
2021/11/01 12:26:16;;;;;;;35.95;27.52;;;;;;;13.03;62.37;99998.94;1752018;81;21059;-79
2021/11/01 12:28:52;;;;;;;32.75;26.97;;;;;;;13.03;62.25;100003.80;1756963;81;21828;-75
2021/11/01 12:31:19;;;;;;;36.10;26.85;;;;;;;13.03;62.17;100001.63;1782764;80;20979;-73
2021/11/01 12:34:06;;;;;;;43.92;27.17;;;;;;;13.00;62.27;100001.59;1738072;80;21592;-79
2021/11/01 12:36:43;;;;;;;31.02;26.12;;;;;;;12.99;62.38;99999.17;1732031;81;21086;-76
2021/11/01 12:40:07;;;;;;;33.92;26.07;;;;;;;13.00;62.54;100001.59;1751468;80;21086;-74
2021/11/01 12:58:58;;;;;;;39.60;29.75;;;;;;;12.90;62.90;99981.83;1723985;82;20927;-73
2021/11/01 13:01:31;;;;;;;43.78;28.67;;;;;;;12.90;62.98;99982.61;1756120;81;20919;-76
2021/11/01 13:04:15;;;;;;;50.35;28.73;;;;;;;12.79;63.21;99979.58;1756130;81;21020;-72
2021/11/01 13:06:38;;;;;;;35.73;26.55;;;;;;;12.79;63.50;99980.11;1753599;81;21543;-73
2021/11/01 13:09:01;;;;;;;51.63;31.37;;;;;;;12.80;63.45;99982.56;1755211;81;22119;-72
2021/11/01 13:11:59;;;;;;;39.18;25.20;;;;;;;12.79;63.46;99981.45;1756251;81;21013;-73
2021/11/01 13:19:22;;;;;;;36.80;24.37;;;;;;;12.67;64.05;99980.26;1726370;81;21265;-72
2021/11/01 13:22:04;;;;;;;47.55;29.80;;;;;;;12.70;64.01;99983.81;1733210;81;22305;-72
2021/11/01 13:24:39;;;;;;;46.63;30.30;;;;;;;12.71;64.04;99977.32;1731097;81;20939;-74
2021/11/01 13:28:03;;;;;;;31.25;25.23;;;;;;;12.69;64.12;99970.03;1774712;80;20916;-73
2021/11/01 13:38:01;;;;;;;45.75;28.70;;;;;;;12.33;65.66;99965.36;1728661;82;20978;-71
2021/11/01 13:40:26;;;;;;;36.93;24.12;;;;;;;12.23;65.98;99953.93;1718223;82;21055;-75
2021/11/01 13:42:57;;;;;;;42.48;29.23;;;;;;;12.19;66.35;99954.16;1671835;82;20986;-73
2021/11/01 13:45:24;;;;;;;27.67;23.07;;;;;;;12.10;66.65;99949.77;1761002;80;21015;-76
2021/11/01 13:47:56;;;;;;;39.45;25.88;;;;;;;12.06;66.91;99951.34;1709980;82;21294;-71
2021/11/01 13:50:26;;;;;;;34.67;24.05;;;;;;;12.02;67.11;99946.17;1764744;81;21507;-73
2021/11/01 13:53:05;;;;;;;28.62;22.77;;;;;;;11.95;67.37;99948.77;1732007;82;21016;-71
2021/11/01 13:55:42;;;;;;;31.05;24.82;;;;;;;11.86;67.71;99948.41;1759005;81;21408;-78
2021/11/01 13:58:12;;;;;;;38.08;28.32;;;;;;;11.77;68.06;99957.47;1759790;81;20992;-77
2021/11/01 14:03:15;;;;;;;33.38;25.52;;;;;;;11.65;68.91;99951.91;1701348;80;20974;-77
2021/11/01 14:14:09;;;;;;;35.92;26.30;;;;;;;11.23;70.50;99959.66;1733724;82;20974;-73
2021/11/01 14:16:32;;;;;;;37.65;26.95;;;;;;;11.14;70.83;99960.62;1741465;80;21559;-73
2021/11/01 14:27:34;;;;;;;29.75;24.80;;;;;;;10.71;72.53;99968.02;1740901;81;21082;-78
2021/11/01 15:07:26;;;;;;;36.23;28.62;;;;;;;9.59;76.92;99946.81;1743452;81;21062;-73
2021/11/01 15:14:32;;;;;;;41.48;28.27;;;;;;;9.41;77.64;99949.09;1728742;82;21003;-73
2021/11/01 15:20:00;;;;;;;41.33;30.70;;;;;;;9.28;78.03;99946.67;1743821;82;21153;-73
2021/11/01 15:28:00;;;;;;;49.83;35.48;;;;;;;9.04;79.27;99957.94;1735740;81;21050;-72
2021/11/01 15:36:09;;;;;;;41.73;30.85;;;;;;;8.85;79.95;99954.25;1735889;81;21002;-73
2021/11/01 15:41:29;;;;;;;46.70;34.20;;;;;;;8.79;80.61;99956.52;1756636;81;21476;-72
2021/11/01 16:18:50;;;;;;;50.43;35.03;;;;;;;8.31;83.07;99962.30;1720010;83;21053;-72
2021/11/01 16:21:18;;;;;;;46.15;35.25;;;;;;;8.33;83.10;99962.08;1700982;83;21028;-74
2021/11/01 16:23:44;;;;;;;39.13;28.98;;;;;;;8.30;83.07;99957.16;1699236;83;21107;-69
2021/11/01 16:26:24;;;;;;;41.42;29.40;;;;;;;8.31;83.17;99952.92;1719676;81;21004;-71
2021/11/01 16:28:58;;;;;;;46.08;28.52;;;;;;;8.26;83.11;99957.30;1740202;82;20944;-74
2021/11/01 16:34:10;;;;;;;41.73;25.88;;;;;;;8.26;83.32;99963.47;1738674;82;20983;-77
2021/11/01 16:36:49;;;;;;;47.30;28.35;;;;;;;8.25;83.33;99959.16;1755899;81;21596;-73
2021/11/01 16:39:13;;;;;;;40.95;28.65;;;;;;;8.26;83.31;99960.80;1765411;81;21808;-73
2021/11/01 16:41:45;;;;;;;42.17;29.77;;;;;;;8.30;83.31;99963.34;1745711;81;21022;-72
2021/11/01 16:44:22;;;;;;;43.55;28.80;;;;;;;8.31;83.15;99963.64;1748837;80;21075;-71
2021/11/01 16:46:47;;;;;;;43.98;27.17;;;;;;;8.29;83.08;99961.73;1740825;81;21058;-73
2021/11/01 16:49:16;;;;;;;41.63;29.87;;;;;;;8.27;83.15;99966.45;1711923;81;21551;-72
2021/11/01 16:51:44;;;;;;;42.60;29.80;;;;;;;8.27;83.23;99970.48;1744540;81;21173;-69
2021/11/01 16:54:15;;;;;;;45.17;30.88;;;;;;;8.27;83.34;99969.66;1743009;81;20939;-73
2021/11/01 16:57:04;;;;;;;49.23;33.38;;;;;;;8.29;83.41;99964.41;1740814;81;20970;-76
2021/11/01 17:04:38;;;;;;;46.42;31.20;;;;;;;8.24;83.73;99969.60;1709431;81;21075;-72
2021/11/01 17:07:17;;;;;;;49.30;35.63;;;;;;;8.26;83.86;99963.99;1709165;83;21600;-75
2021/11/01 17:26:09;;;;;;;51.28;37.38;;;;;;;8.24;84.07;99952.19;1711612;82;21036;-80
2021/11/01 18:24:45;;;;;;;46.40;35.15;;;;;;;7.87;83.90;99895.20;1717682;82;20986;-74
2021/11/01 18:51:18;;;;;;;61.02;38.45;;;;;;;7.25;85.81;99884.36;1756963;81;21097;-72
2021/11/01 18:53:46;;;;;;;70.00;42.62;;;;;;;7.28;85.74;99884.45;1756003;80;21539;-72
2021/11/01 18:56:12;;;;;;;60.35;42.10;;;;;;;7.21;85.44;99883.17;1726170;80;21029;-75
2021/11/01 18:58:41;;;;;;;52.40;37.42;;;;;;;7.18;85.58;99884.14;1734225;81;20984;-72
2021/11/01 19:01:11;;;;;;;56.83;37.48;;;;;;;7.14;85.50;99879.77;1733480;81;21016;-73
2021/11/01 19:03:45;;;;;;;60.45;40.20;;;;;;;7.08;85.51;99878.49;1756405;81;21051;-74
2021/11/01 20:06:18;;;;;;;55.88;40.45;;;;;;;6.41;89.46;99848.11;1755003;81;21453;-80
2021/11/01 20:11:26;;;;;;;59.90;39.25;;;;;;;6.42;89.49;99839.88;1753421;81;20973;-76
2021/11/01 21:25:52;;;;;;;70.22;47.13;;;;;;;5.69;94.76;99784.05;1733330;82;20430;-71
2021/11/01 21:28:19;;;;;;;60.67;40.92;;;;;;;5.68;94.78;99781.89;1710125;81;21034;-69
2021/11/01 21:30:46;;;;;;;61.00;44.50;;;;;;;5.73;94.79;99782.58;1762158;81;21768;-70
2021/11/01 21:33:17;;;;;;;69.75;46.90;;;;;;;5.71;94.53;99777.95;1764478;80;20967;-70
2021/11/01 21:35:46;;;;;;;54.27;40.58;;;;;;;5.70;94.45;99773.17;1749719;80;21046;-70
2021/11/01 21:38:12;;;;;;;65.65;48.23;;;;;;;5.65;94.22;99768.99;1779310;80;20957;-69
2021/11/01 21:40:38;;;;;;;66.10;44.73;;;;;;;5.58;94.27;99768.72;1780349;80;20982;-75
2021/11/01 21:43:05;;;;;;;57.90;39.67;;;;;;;5.63;94.47;99762.22;1738152;81;21035;-73
2021/11/01 21:45:31;;;;;;;67.25;46.05;;;;;;;5.63;94.30;99771.05;1733474;81;21551;-70
2021/11/01 21:47:58;;;;;;;57.90;40.30;;;;;;;5.55;94.18;99769.98;1761166;81;21943;-71
2021/11/01 21:50:24;;;;;;;69.15;47.35;;;;;;;5.53;94.49;99768.03;1761181;81;21297;-71
2021/11/01 21:52:53;;;;;;;64.95;47.80;;;;;;;5.49;94.59;99759.34;1733989;80;21534;-70
2021/11/01 21:55:21;;;;;;;63.90;43.05;;;;;;;5.44;94.83;99765.32;1759462;80;20959;-71
2021/11/01 21:57:52;;;;;;;71.60;50.43;;;;;;;5.40;95.08;99762.78;1740132;82;20982;-70
2021/11/01 22:16:47;;;;;;;63.02;47.30;;;;;;;5.47;95.34;99758.21;1739929;82;21538;-72